createdAt,value
2023-03-07T00:01:26.192Z,3.43
2023-03-07T00:03:54.482Z,3.10
2023-03-07T00:06:25.125Z,4.03
2023-03-07T00:08:56.209Z,3.80
2023-03-07T00:11:25.049Z,3.50
2023-03-07T00:13:53.310Z,3.10
2023-03-07T00:16:24.924Z,3.57
2023-03-07T00:18:53.043Z,3.20
2023-03-07T00:21:24.168Z,3.40
2023-03-07T00:23:54.112Z,3.17
2023-03-07T00:26:24.225Z,2.50
2023-03-07T00:28:54.927Z,3.47
2023-03-07T00:31:24.803Z,3.63
2023-03-07T00:33:53.303Z,2.73
2023-03-07T00:36:24.640Z,2.80
2023-03-07T00:38:53.719Z,3.13
2023-03-07T00:41:23.178Z,3.03
2023-03-07T00:43:52.497Z,3.10
2023-03-07T00:46:22.094Z,3.27
2023-03-07T00:48:51.124Z,2.63
2023-03-07T00:51:20.848Z,2.93
2023-03-07T00:53:51.278Z,3.17
2023-03-07T00:56:20.819Z,2.70
2023-03-07T00:58:49.255Z,2.70
2023-03-07T01:01:19.583Z,3.20
2023-03-07T01:03:49.950Z,3.00
2023-03-07T01:06:20.444Z,3.87
2023-03-07T01:08:48.679Z,3.10
2023-03-07T01:11:18.645Z,2.80
2023-03-07T01:13:47.336Z,2.77
2023-03-07T01:16:19.699Z,3.00
2023-03-07T01:18:51.186Z,2.73
2023-03-07T01:21:21.765Z,2.40
2023-03-07T01:23:50.185Z,3.10
2023-03-07T01:26:21.649Z,2.47
2023-03-07T01:28:51.967Z,2.70
2023-03-07T01:31:20.503Z,2.63
2023-03-07T01:33:49.259Z,2.70
2023-03-07T01:36:19.741Z,2.70
2023-03-07T01:38:48.223Z,2.20
2023-03-07T01:41:16.762Z,2.60
2023-03-07T01:43:46.797Z,2.47
2023-03-07T01:46:52.873Z,2.33
2023-03-07T01:49:26.127Z,2.80
2023-03-07T01:52:00.141Z,2.47
2023-03-07T01:54:29.415Z,2.40
2023-03-07T01:56:59.214Z,2.10
2023-03-07T01:59:33.141Z,2.50
2023-03-07T02:02:06.776Z,1.77
2023-03-07T02:04:38.215Z,2.23
2023-03-07T02:07:09.699Z,2.30
2023-03-07T02:09:39.374Z,2.53
2023-03-07T02:12:09.852Z,1.93
2023-03-07T02:14:45.290Z,2.07
2023-03-07T02:17:17.965Z,2.30
2023-03-07T02:20:01.343Z,2.23
2023-03-07T02:22:30.898Z,2.40
2023-03-07T02:25:03.769Z,2.17
2023-03-07T02:27:37.829Z,2.00
2023-03-07T02:30:07.096Z,2.00
2023-03-07T02:32:41.330Z,2.50
2023-03-07T02:35:15.832Z,2.03
2023-03-07T02:37:47.700Z,2.37
2023-03-07T02:40:18.044Z,1.80
2023-03-07T02:42:48.809Z,2.20
2023-03-07T02:45:19.753Z,2.00
2023-03-07T02:47:48.072Z,2.37
2023-03-07T02:50:17.746Z,1.73
2023-03-07T02:52:46.195Z,1.93
2023-03-07T02:55:14.550Z,2.00
2023-03-07T02:57:43.230Z,1.70
2023-03-07T03:00:14.792Z,2.00
2023-03-07T03:02:43.169Z,2.13
2023-03-07T03:05:11.362Z,2.00
2023-03-07T03:07:39.982Z,2.00
2023-03-07T03:10:09.379Z,1.57
2023-03-07T03:12:38.731Z,1.77
2023-03-07T03:15:10.056Z,1.87
2023-03-07T03:17:39.906Z,1.67
2023-03-07T03:20:12.031Z,1.53
2023-03-07T03:22:40.730Z,1.60
2023-03-07T03:25:14.261Z,1.83
2023-03-07T03:27:43.411Z,1.93
2023-03-07T03:30:14.200Z,1.90
2023-03-07T03:32:44.626Z,1.87
2023-03-07T03:35:13.063Z,1.70
2023-03-07T03:37:41.656Z,1.73
2023-03-07T03:40:14.823Z,1.40
2023-03-07T03:42:45.425Z,1.87
2023-03-07T03:45:15.230Z,1.53
2023-03-07T03:47:45.255Z,1.77
2023-03-07T03:50:13.738Z,1.70
2023-03-07T03:52:45.352Z,1.77
2023-03-07T03:55:13.923Z,1.37
2023-03-07T03:57:42.206Z,1.70
2023-03-07T04:00:14.828Z,1.50
2023-03-07T04:02:45.269Z,1.77
2023-03-07T04:05:14.720Z,1.50
2023-03-07T04:07:45.545Z,1.70
2023-03-07T04:10:14.001Z,1.47
2023-03-07T04:12:43.257Z,1.63
2023-03-07T04:15:13.234Z,1.37
2023-03-07T04:17:41.437Z,1.37
2023-03-07T04:20:17.996Z,1.80
2023-03-07T04:22:46.331Z,1.60
2023-03-07T04:25:14.495Z,1.60
2023-03-07T04:27:43.536Z,1.60
2023-03-07T04:30:12.896Z,1.50
2023-03-07T04:32:42.772Z,1.63
2023-03-07T04:35:13.003Z,1.60
2023-03-07T04:37:41.275Z,1.57
2023-03-07T04:40:10.822Z,1.43
2023-03-07T04:42:39.148Z,1.67
2023-03-07T04:45:08.878Z,1.90
2023-03-07T04:47:39.562Z,1.60
2023-03-07T04:50:09.115Z,2.03
2023-03-07T04:53:02.459Z,1.37
2023-03-07T04:55:30.832Z,1.43
2023-03-07T04:57:59.352Z,1.50
2023-03-07T05:00:27.624Z,1.57
2023-03-07T05:03:02.318Z,1.50
2023-03-07T05:05:30.597Z,1.70
2023-03-07T05:08:00.358Z,1.90
2023-03-07T05:10:29.069Z,1.50
2023-03-07T05:12:58.113Z,1.57
2023-03-07T05:15:27.210Z,1.60
2023-03-07T05:17:55.551Z,1.77
2023-03-07T05:20:24.478Z,1.33
2023-03-07T05:23:00.652Z,1.30
2023-03-07T05:25:30.814Z,1.33
2023-03-07T05:27:59.049Z,2.10
2023-03-07T05:30:27.679Z,1.53
2023-03-07T05:32:56.045Z,1.50
2023-03-07T05:35:25.973Z,1.60
2023-03-07T05:37:54.694Z,1.50
2023-03-07T05:40:23.081Z,1.43
2023-03-07T05:42:53.010Z,1.70
2023-03-07T05:45:21.802Z,1.30
2023-03-07T05:47:50.112Z,1.63
2023-03-07T05:50:21.318Z,1.60
2023-03-07T05:52:49.724Z,1.10
2023-03-07T05:55:18.632Z,1.70
2023-03-07T05:57:48.371Z,1.50
2023-03-07T06:00:19.666Z,1.30
2023-03-07T06:02:48.252Z,1.37
2023-03-07T06:05:17.073Z,1.60
2023-03-07T06:07:45.250Z,1.60
2023-03-07T06:10:14.415Z,1.20
2023-03-07T06:12:42.729Z,1.33
2023-03-07T06:15:12.576Z,1.60
2023-03-07T06:17:42.365Z,1.60
2023-03-07T06:20:13.630Z,1.70
2023-03-07T06:22:42.146Z,1.70
2023-03-07T06:25:11.298Z,1.97
2023-03-07T06:27:40.595Z,1.80
2023-03-07T06:30:10.402Z,1.20
2023-03-07T06:32:38.832Z,1.60
2023-03-07T06:35:09.743Z,1.10
2023-03-07T06:37:37.946Z,1.40
2023-03-07T06:40:09.584Z,1.43
2023-03-07T06:42:38.431Z,1.20
2023-03-07T06:45:08.480Z,1.40
2023-03-07T06:47:36.801Z,1.30
2023-03-07T06:50:26.429Z,1.50
2023-03-07T06:52:59.862Z,1.30
2023-03-07T06:55:28.201Z,1.40
2023-03-07T06:57:56.752Z,1.40
2023-03-07T07:00:25.602Z,1.57
2023-03-07T07:02:54.024Z,1.60
2023-03-07T07:05:22.536Z,1.40
2023-03-07T07:07:50.978Z,1.10
2023-03-07T07:10:20.719Z,1.13
2023-03-07T07:12:49.135Z,1.53
2023-03-07T07:15:20.809Z,1.30
2023-03-07T07:17:49.196Z,1.53
2023-03-07T07:20:17.677Z,1.23
2023-03-07T07:22:46.200Z,1.73
2023-03-07T07:25:14.533Z,1.20
2023-03-07T07:27:44.897Z,1.20
2023-03-07T07:30:14.020Z,1.40
2023-03-07T07:32:42.434Z,1.40
2023-03-07T07:35:11.163Z,1.70
2023-03-07T07:37:44.595Z,1.10
2023-03-07T07:40:15.199Z,1.00
2023-03-07T07:42:45.061Z,1.40
2023-03-07T07:45:13.442Z,1.50
2023-03-07T07:47:41.691Z,1.43
2023-03-07T07:50:11.188Z,1.43
2023-03-07T07:52:39.423Z,1.23
2023-03-07T07:55:09.063Z,1.30
2023-03-07T07:57:37.595Z,1.10
2023-03-07T08:00:11.105Z,1.60
2023-03-07T08:02:39.668Z,0.83
2023-03-07T08:05:10.526Z,1.70
2023-03-07T08:07:38.892Z,1.27
2023-03-07T08:10:09.074Z,1.10
2023-03-07T08:12:37.773Z,1.20
2023-03-07T08:15:09.476Z,1.10
2023-03-07T08:17:37.996Z,1.30
2023-03-07T08:20:10.091Z,1.33
2023-03-07T08:22:38.765Z,1.20
2023-03-07T08:25:08.009Z,1.17
2023-03-07T08:27:36.441Z,1.07
2023-03-07T08:30:05.451Z,0.87
2023-03-07T08:32:35.653Z,1.23
2023-03-07T08:35:04.229Z,1.03
2023-03-07T08:37:32.455Z,0.97
2023-03-07T08:40:00.691Z,0.90
2023-03-07T08:42:28.914Z,1.20
2023-03-07T08:44:57.194Z,1.30
2023-03-07T08:47:26.759Z,1.17
2023-03-07T08:49:56.507Z,1.40
2023-03-07T08:52:25.201Z,0.93
2023-03-07T08:54:53.481Z,1.10
2023-03-07T08:57:21.772Z,1.00
2023-03-07T08:59:50.232Z,1.33
2023-03-07T09:02:18.623Z,1.23
2023-03-07T09:04:47.466Z,1.17
2023-03-07T09:07:19.328Z,1.53
2023-03-07T09:09:47.748Z,1.23
2023-03-07T09:12:17.763Z,1.10
2023-03-07T09:14:46.041Z,0.90
2023-03-07T09:17:14.844Z,1.10
2023-03-07T09:19:43.370Z,1.50
2023-03-07T09:22:11.845Z,0.83
2023-03-07T09:24:41.563Z,1.27
2023-03-07T09:27:11.568Z,1.20
2023-03-07T09:29:39.957Z,1.17
2023-03-07T09:32:08.697Z,1.40
2023-03-07T09:34:37.007Z,1.20
2023-03-07T09:37:05.433Z,1.30
2023-03-07T09:39:34.068Z,1.03
2023-03-07T09:42:16.969Z,1.27
2023-03-07T09:45:10.218Z,0.87
2023-03-07T09:48:00.000Z,1.20
2023-03-07T09:50:36.681Z,1.43
2023-03-07T09:53:06.720Z,1.00
2023-03-07T09:55:35.327Z,1.10
2023-03-07T09:58:12.893Z,1.10
2023-03-07T10:00:46.078Z,1.20
2023-03-07T10:03:23.660Z,1.00
2023-03-07T10:05:56.261Z,1.33
2023-03-07T10:08:31.341Z,1.00
2023-03-07T10:11:12.753Z,1.30
2023-03-07T10:13:58.951Z,1.07
2023-03-07T10:16:33.193Z,1.00
2023-03-07T10:19:21.720Z,1.10
2023-03-07T10:21:59.640Z,1.20
2023-03-07T10:24:42.161Z,1.30
2023-03-07T10:27:12.861Z,1.23
2023-03-07T10:29:48.085Z,1.17
2023-03-07T10:32:23.276Z,1.80
2023-03-07T10:34:59.408Z,1.27
2023-03-07T10:37:37.975Z,1.00
2023-03-07T10:40:06.946Z,1.00
2023-03-07T10:42:39.778Z,1.17
2023-03-07T10:45:14.013Z,0.90
2023-03-07T10:47:42.579Z,0.90
2023-03-07T10:50:27.701Z,1.00
2023-03-07T10:52:58.832Z,1.00
2023-03-07T10:55:39.582Z,1.20
2023-03-07T10:58:21.476Z,1.10
2023-03-07T11:01:10.716Z,1.30
2023-03-07T11:03:52.731Z,0.90
2023-03-07T11:06:44.748Z,1.20
2023-03-07T11:09:19.513Z,1.10
2023-03-07T11:11:55.123Z,1.00
2023-03-07T11:14:24.393Z,1.10
2023-03-07T11:16:56.981Z,1.20
2023-03-07T11:19:38.407Z,1.00
2023-03-07T11:22:22.519Z,1.80
2023-03-07T11:24:55.813Z,1.30
2023-03-07T11:27:28.342Z,1.20
2023-03-07T11:30:25.694Z,0.90
2023-03-07T11:33:11.778Z,0.90
2023-03-07T11:36:00.041Z,0.97
2023-03-07T11:38:42.798Z,1.40
2023-03-07T11:41:17.180Z,0.90
2023-03-07T11:44:01.374Z,1.57
2023-03-07T11:46:41.743Z,1.10
2023-03-07T11:49:25.942Z,1.00
2023-03-07T11:52:08.615Z,1.03
2023-03-07T11:54:49.433Z,1.30
2023-03-07T11:57:27.288Z,1.30
2023-03-07T12:00:26.284Z,1.00
2023-03-07T12:03:30.393Z,1.47
2023-03-07T12:06:16.869Z,0.97
2023-03-07T12:09:09.382Z,1.20
2023-03-07T12:12:01.069Z,1.00
2023-03-07T12:14:42.427Z,1.50
2023-03-07T12:17:24.288Z,1.10
2023-03-07T12:20:27.349Z,1.20
2023-03-07T12:23:11.273Z,1.37
2023-03-07T12:25:43.422Z,1.60
2023-03-07T12:28:18.976Z,1.23
2023-03-07T12:30:56.597Z,1.20
2023-03-07T12:33:30.658Z,1.30
2023-03-07T12:36:05.790Z,1.20
2023-03-07T12:38:44.232Z,1.10
2023-03-07T12:41:25.746Z,1.47
2023-03-07T12:43:58.464Z,1.20
2023-03-07T12:46:37.463Z,1.40
2023-03-07T12:49:12.946Z,1.20
2023-03-07T12:51:47.091Z,1.10
2023-03-07T12:54:22.215Z,1.10
2023-03-07T12:56:56.844Z,1.37
2023-03-07T12:59:26.010Z,1.13
2023-03-07T13:02:00.449Z,1.20
2023-03-07T13:04:33.504Z,1.30
2023-03-07T13:07:10.172Z,1.03
2023-03-07T13:09:42.776Z,0.90
2023-03-07T13:12:34.140Z,1.10
2023-03-07T13:15:03.924Z,1.10
2023-03-07T13:17:58.761Z,1.23
2023-03-07T13:20:45.468Z,1.40
2023-03-07T13:23:29.916Z,1.43
2023-03-07T13:26:17.875Z,1.30
2023-03-07T13:29:05.059Z,1.30
2023-03-07T13:31:46.836Z,1.43
2023-03-07T13:34:52.702Z,1.30
2023-03-07T13:37:54.146Z,1.30
2023-03-07T13:40:44.500Z,1.37
2023-03-07T13:43:52.600Z,1.03
2023-03-07T13:46:49.583Z,1.43
2023-03-07T13:49:50.749Z,1.50
2023-03-07T13:52:41.040Z,1.30
2023-03-07T13:55:39.665Z,1.37
2023-03-07T13:58:29.797Z,1.33
2023-03-07T14:01:02.544Z,1.20
2023-03-07T14:03:37.105Z,1.50
2023-03-07T14:06:12.420Z,1.50
2023-03-07T14:08:41.029Z,1.67
2023-03-07T14:11:19.906Z,1.37
2023-03-07T14:14:16.887Z,1.10
2023-03-07T14:17:03.062Z,1.50
2023-03-07T14:19:50.157Z,1.30
2023-03-07T14:22:28.590Z,1.70
2023-03-07T14:25:16.699Z,1.60
2023-03-07T14:28:19.493Z,1.87
2023-03-07T14:30:57.466Z,1.10
2023-03-07T14:33:33.073Z,1.60
2023-03-07T14:36:04.985Z,1.27
2023-03-07T14:38:34.229Z,1.20
2023-03-07T14:41:26.687Z,1.10
2023-03-07T14:44:06.671Z,0.90
2023-03-07T14:46:59.683Z,1.00
2023-03-07T14:49:38.964Z,1.40
2023-03-07T14:52:28.248Z,1.20
2023-03-07T14:55:00.916Z,1.30
2023-03-07T14:57:33.383Z,1.20
2023-03-07T15:00:12.775Z,1.13
2023-03-07T15:02:59.140Z,1.13
2023-03-07T15:05:29.096Z,0.97
2023-03-07T15:08:02.848Z,1.43
2023-03-07T15:10:36.620Z,0.90
2023-03-07T15:13:11.003Z,1.10
2023-03-07T15:15:47.304Z,1.30
2023-03-07T15:18:23.560Z,1.27
2023-03-07T15:20:53.860Z,1.10
2023-03-07T15:23:25.387Z,1.23
2023-03-07T15:25:56.712Z,1.40
2023-03-07T15:28:28.578Z,1.23
2023-03-07T15:30:58.624Z,1.23
2023-03-07T15:33:29.268Z,1.20
2023-03-07T15:36:28.055Z,1.20
2023-03-07T15:39:28.097Z,1.37
2023-03-07T15:42:05.266Z,1.47
2023-03-07T15:44:34.357Z,1.57
2023-03-07T15:47:14.972Z,0.90
2023-03-07T15:49:47.392Z,1.27
2023-03-07T15:52:23.589Z,1.20
2023-03-07T15:54:57.383Z,1.33
2023-03-07T15:57:28.343Z,0.97
2023-03-07T16:00:00.515Z,1.00
2023-03-07T16:02:42.075Z,1.20
2023-03-07T16:05:38.393Z,1.10
2023-03-07T16:08:14.590Z,1.13
2023-03-07T16:10:52.327Z,1.80
2023-03-07T16:13:24.554Z,1.13
2023-03-07T16:16:04.530Z,1.30
2023-03-07T16:18:37.452Z,1.33
2023-03-07T16:21:06.132Z,1.23
2023-03-07T16:23:38.341Z,1.43
2023-03-07T16:26:09.340Z,1.50
2023-03-07T16:28:38.015Z,1.40
2023-03-07T16:31:12.458Z,1.10
2023-03-07T16:33:43.141Z,1.40
2023-03-07T16:36:14.601Z,1.00
2023-03-07T16:38:45.011Z,1.63
2023-03-07T16:41:19.330Z,1.03
2023-03-07T16:43:49.798Z,0.90
2023-03-07T16:46:19.952Z,1.03
2023-03-07T16:48:48.292Z,1.00
2023-03-07T16:51:21.472Z,0.93
2023-03-07T16:53:51.449Z,0.70
2023-03-07T16:56:28.489Z,1.03
2023-03-07T16:58:57.095Z,0.97
2023-03-07T17:01:27.549Z,0.90
2023-03-07T17:03:56.699Z,0.87
2023-03-07T17:06:38.437Z,0.77
2023-03-07T17:09:09.648Z,0.83
2023-03-07T17:11:46.636Z,0.70
2023-03-07T17:14:18.917Z,0.80
2023-03-07T17:16:49.318Z,0.93
2023-03-07T17:19:32.954Z,0.70
2023-03-07T17:22:03.797Z,0.70
2023-03-07T17:24:33.906Z,0.93
2023-03-07T17:27:03.890Z,0.90
2023-03-07T17:29:37.083Z,0.90
2023-03-07T17:32:06.248Z,0.70
2023-03-07T17:34:36.480Z,1.03
2023-03-07T17:37:05.814Z,0.70
2023-03-07T17:39:35.745Z,1.00
2023-03-07T17:42:05.966Z,0.90
2023-03-07T17:44:35.098Z,0.83
2023-03-07T17:47:05.738Z,0.90
2023-03-07T17:49:34.777Z,1.10
2023-03-07T17:52:03.310Z,0.90
2023-03-07T17:54:32.525Z,0.70
2023-03-07T17:57:01.024Z,0.90
2023-03-07T17:59:32.094Z,1.13
2023-03-07T18:02:00.650Z,0.80
2023-03-07T18:04:31.464Z,1.10
2023-03-07T18:07:00.475Z,1.10
2023-03-07T18:09:31.786Z,0.83
2023-03-07T18:12:01.932Z,1.00
2023-03-07T18:14:52.980Z,1.27
2023-03-07T18:17:26.045Z,1.13
2023-03-07T18:19:54.345Z,1.30
2023-03-07T18:22:22.565Z,0.90
2023-03-07T18:24:53.980Z,1.13
2023-03-07T18:27:22.711Z,0.70
2023-03-07T18:29:54.149Z,1.00
2023-03-07T18:32:23.010Z,1.03
2023-03-07T18:34:53.711Z,1.10
2023-03-07T18:37:23.076Z,0.80
2023-03-07T18:39:51.350Z,0.90
2023-03-07T18:42:19.713Z,0.90
2023-03-07T18:44:48.074Z,0.93
2023-03-07T18:47:17.785Z,0.83
2023-03-07T18:49:45.985Z,1.10
2023-03-07T18:52:14.212Z,0.90
2023-03-07T18:54:42.720Z,1.20
2023-03-07T18:57:11.100Z,1.00
2023-03-07T18:59:39.956Z,1.10
2023-03-07T19:02:08.719Z,0.80
2023-03-07T19:04:38.396Z,1.10
2023-03-07T19:07:06.822Z,1.00
2023-03-07T19:09:35.115Z,1.07
2023-03-07T19:12:05.583Z,0.80
2023-03-07T19:14:33.935Z,0.90
2023-03-07T19:17:03.673Z,0.90
2023-03-07T19:19:31.981Z,0.80
2023-03-07T19:22:02.411Z,0.73
2023-03-07T19:24:33.088Z,0.90
2023-03-07T19:27:01.337Z,1.30
2023-03-07T19:29:29.547Z,0.70
2023-03-07T19:31:57.871Z,0.97
2023-03-07T19:34:26.813Z,0.83
2023-03-07T19:36:55.064Z,0.87
2023-03-07T19:39:25.017Z,0.90
2023-03-07T19:41:57.354Z,1.20
2023-03-07T19:44:25.747Z,0.90
2023-03-07T19:46:54.128Z,0.80
2023-03-07T19:49:23.534Z,0.93
2023-03-07T19:51:53.392Z,1.03
2023-03-07T19:54:22.764Z,0.90
2023-03-07T19:56:53.310Z,1.30
2023-03-07T19:59:21.761Z,0.87
2023-03-07T20:01:49.998Z,1.33
2023-03-07T20:04:18.991Z,0.90
2023-03-07T20:06:47.208Z,0.87
2023-03-07T20:09:15.374Z,1.23
2023-03-07T20:11:44.778Z,1.43
2023-03-07T20:14:14.853Z,1.03
2023-03-07T20:16:43.130Z,0.90
2023-03-07T20:19:22.929Z,0.90
2023-03-07T20:21:57.020Z,0.90
2023-03-07T20:24:25.440Z,0.83
2023-03-07T20:26:53.596Z,0.80
2023-03-07T20:29:23.308Z,0.93
2023-03-07T20:31:51.600Z,0.87
2023-03-07T20:34:20.594Z,0.90
2023-03-07T20:36:48.831Z,1.10
2023-03-07T20:39:17.215Z,1.00
2023-03-07T20:41:45.677Z,1.00
2023-03-07T20:44:16.471Z,1.00
2023-03-07T20:46:46.150Z,0.83
2023-03-07T20:49:15.792Z,1.00
2023-03-07T20:51:44.601Z,1.20
2023-03-07T20:54:14.237Z,1.07
2023-03-07T20:56:42.960Z,0.90
2023-03-07T20:59:13.511Z,0.90
2023-03-07T21:01:41.768Z,1.23
2023-03-07T21:04:13.541Z,1.00
2023-03-07T21:06:43.858Z,1.00
2023-03-07T21:09:14.309Z,1.10
2023-03-07T21:11:46.717Z,0.90
2023-03-07T21:14:21.885Z,1.30
2023-03-07T21:16:50.512Z,0.93
2023-03-07T21:19:21.181Z,1.20
2023-03-07T21:21:49.447Z,0.80
2023-03-07T21:24:17.765Z,0.83
2023-03-07T21:26:47.240Z,0.90
2023-03-07T21:29:16.128Z,0.60
2023-03-07T21:31:44.483Z,0.83
2023-03-07T21:34:15.118Z,0.70
2023-03-07T21:36:48.014Z,0.90
2023-03-07T21:39:16.218Z,0.93
2023-03-07T21:41:44.397Z,1.40
2023-03-07T21:44:12.641Z,0.83
2023-03-07T21:46:40.824Z,1.13
2023-03-07T21:49:09.502Z,1.10
2023-03-07T21:51:37.724Z,0.60
2023-03-07T21:54:07.571Z,0.70
2023-03-07T21:56:35.820Z,0.77
2023-03-07T21:59:04.135Z,0.70
2023-03-07T22:01:32.345Z,0.80
2023-03-07T22:04:01.090Z,0.60
2023-03-07T22:06:30.085Z,1.17
2023-03-07T22:09:00.543Z,0.70
2023-03-07T22:11:31.993Z,1.07
2023-03-07T22:14:00.280Z,0.90
2023-03-07T22:16:28.616Z,0.90
2023-03-07T22:18:59.803Z,1.00
2023-03-07T22:21:28.029Z,0.93
2023-03-07T22:23:58.179Z,1.00
2023-03-07T22:26:27.863Z,1.00
2023-03-07T22:28:57.630Z,0.97
2023-03-07T22:31:26.902Z,0.90
2023-03-07T22:33:55.784Z,0.70
2023-03-07T22:36:24.073Z,0.70
2023-03-07T22:38:56.393Z,1.20
2023-03-07T22:41:26.140Z,0.80
2023-03-07T22:43:54.579Z,1.03
2023-03-07T22:46:25.000Z,1.00
2023-03-07T22:48:54.327Z,0.93
2023-03-07T22:51:23.902Z,1.10
2023-03-07T22:53:52.119Z,0.90
2023-03-07T22:56:22.075Z,0.93
2023-03-07T22:58:50.420Z,1.20
2023-03-07T23:01:21.470Z,0.97
2023-03-07T23:04:01.494Z,0.97
2023-03-07T23:06:32.010Z,0.57
2023-03-07T23:09:02.028Z,1.10
2023-03-07T23:11:35.969Z,0.60
2023-03-07T23:14:05.300Z,1.00
2023-03-07T23:16:36.343Z,0.77
2023-03-07T23:19:06.656Z,0.83
2023-03-07T23:21:35.819Z,0.80
2023-03-07T23:24:05.295Z,1.27
2023-03-07T23:26:35.331Z,0.60
2023-03-07T23:29:04.132Z,0.70
2023-03-07T23:31:35.104Z,0.97
2023-03-07T23:34:06.597Z,1.00
2023-03-07T23:36:35.434Z,0.90
2023-03-07T23:39:03.684Z,0.77
2023-03-07T23:41:32.003Z,0.90
2023-03-07T23:44:01.512Z,0.70
2023-03-07T23:46:30.686Z,1.03
2023-03-07T23:48:59.265Z,1.03
2023-03-07T23:51:32.005Z,0.97
2023-03-07T23:54:00.732Z,1.23
2023-03-07T23:56:30.949Z,1.07
2023-03-07T23:58:59.117Z,0.70
